sensor_id;sensor_type;location;lat;lon;timestamp;temperature;humidity
48515;DHT22;34309;47.260;2.796;2022-09-09T00:02:27;23.30;33.40
48515;DHT22;34309;47.260;2.796;2022-09-09T00:05:00;23.30;33.30
48515;DHT22;34309;47.260;2.796;2022-09-09T00:07:39;23.30;33.50
48515;DHT22;34309;47.260;2.796;2022-09-09T00:15:14;23.20;33.60
48515;DHT22;34309;47.260;2.796;2022-09-09T00:20:24;23.20;33.30
48515;DHT22;34309;47.260;2.796;2022-09-09T00:28:52;23.20;33.40
48515;DHT22;34309;47.260;2.796;2022-09-09T00:31:24;23.20;33.50
48515;DHT22;34309;47.260;2.796;2022-09-09T00:33:51;23.20;33.60
48515;DHT22;34309;47.260;2.796;2022-09-09T00:36:21;23.20;33.50
48515;DHT22;34309;47.260;2.796;2022-09-09T00:38:52;23.20;33.40
48515;DHT22;34309;47.260;2.796;2022-09-09T00:41:47;23.20;33.40
48515;DHT22;34309;47.260;2.796;2022-09-09T00:44:31;23.20;33.70
48515;DHT22;34309;47.260;2.796;2022-09-09T00:50:23;23.20;33.70
48515;DHT22;34309;47.260;2.796;2022-09-09T00:58:07;23.20;33.50
48515;DHT22;34309;47.260;2.796;2022-09-09T01:00:55;23.20;33.60
48515;DHT22;34309;47.260;2.796;2022-09-09T01:03:40;23.20;33.60
48515;DHT22;34309;47.260;2.796;2022-09-09T01:06:30;23.20;33.70
48515;DHT22;34309;47.260;2.796;2022-09-09T01:11:28;23.20;33.50
48515;DHT22;34309;47.260;2.796;2022-09-09T01:14:27;23.20;33.60
48515;DHT22;34309;47.260;2.796;2022-09-09T01:16:59;23.20;33.60
48515;DHT22;34309;47.260;2.796;2022-09-09T01:19:50;23.20;33.60
48515;DHT22;34309;47.260;2.796;2022-09-09T01:27:59;23.10;33.30
48515;DHT22;34309;47.260;2.796;2022-09-09T01:30:26;23.10;33.40
48515;DHT22;34309;47.260;2.796;2022-09-09T01:32:58;23.10;33.40
48515;DHT22;34309;47.260;2.796;2022-09-09T01:38:33;23.10;33.50
48515;DHT22;34309;47.260;2.796;2022-09-09T01:40:59;23.10;33.70
48515;DHT22;34309;47.260;2.796;2022-09-09T01:43:26;23.10;33.50
48515;DHT22;34309;47.260;2.796;2022-09-09T01:45:58;23.10;33.40
48515;DHT22;34309;47.260;2.796;2022-09-09T01:48:25;23.10;33.60
48515;DHT22;34309;47.260;2.796;2022-09-09T01:50:51;23.10;33.70
48515;DHT22;34309;47.260;2.796;2022-09-09T01:53:18;23.10;33.70
48515;DHT22;34309;47.260;2.796;2022-09-09T01:56:11;23.10;33.50
48515;DHT22;34309;47.260;2.796;2022-09-09T02:04:38;23.10;33.60
48515;DHT22;34309;47.260;2.796;2022-09-09T02:07:09;23.10;33.60
48515;DHT22;34309;47.260;2.796;2022-09-09T02:09:36;23.10;33.60
48515;DHT22;34309;47.260;2.796;2022-09-09T02:12:11;23.10;33.70
48515;DHT22;34309;47.260;2.796;2022-09-09T02:14:46;23.10;33.50
48515;DHT22;34309;47.260;2.796;2022-09-09T02:17:16;23.10;33.40
48515;DHT22;34309;47.260;2.796;2022-09-09T02:20:03;23.10;33.70
48515;DHT22;34309;47.260;2.796;2022-09-09T02:22:30;23.10;33.70
48515;DHT22;34309;47.260;2.796;2022-09-09T02:24:58;23.10;33.70
48515;DHT22;34309;47.260;2.796;2022-09-09T02:27:25;23.10;33.60
48515;DHT22;34309;47.260;2.796;2022-09-09T02:29:52;23.10;33.70
48515;DHT22;34309;47.260;2.796;2022-09-09T02:32:22;23.10;33.70
48515;DHT22;34309;47.260;2.796;2022-09-09T02:34:53;23.10;33.70
48515;DHT22;34309;47.260;2.796;2022-09-09T02:37:23;23.10;33.60
48515;DHT22;34309;47.260;2.796;2022-09-09T02:39:50;23.10;33.60
48515;DHT22;34309;47.260;2.796;2022-09-09T02:42:16;23.00;33.60
48515;DHT22;34309;47.260;2.796;2022-09-09T02:44:42;23.10;33.70
48515;DHT22;34309;47.260;2.796;2022-09-09T02:47:28;23.00;33.60
48515;DHT22;34309;47.260;2.796;2022-09-09T02:50:11;23.00;33.60
48515;DHT22;34309;47.260;2.796;2022-09-09T02:53:07;23.00;33.60
48515;DHT22;34309;47.260;2.796;2022-09-09T02:55:45;23.00;33.50
48515;DHT22;34309;47.260;2.796;2022-09-09T02:58:14;23.00;33.70
48515;DHT22;34309;47.260;2.796;2022-09-09T03:00:43;23.00;33.60
48515;DHT22;34309;47.260;2.796;2022-09-09T03:03:10;23.00;33.60
48515;DHT22;34309;47.260;2.796;2022-09-09T03:05:36;23.00;33.70
48515;DHT22;34309;47.260;2.796;2022-09-09T03:08:03;23.00;33.70
48515;DHT22;34309;47.260;2.796;2022-09-09T03:10:29;23.00;33.70
48515;DHT22;34309;47.260;2.796;2022-09-09T03:12:55;23.00;33.80
48515;DHT22;34309;47.260;2.796;2022-09-09T03:15:21;23.00;33.60
48515;DHT22;34309;47.260;2.796;2022-09-09T03:17:46;23.00;33.60
48515;DHT22;34309;47.260;2.796;2022-09-09T03:20:12;23.00;33.70
48515;DHT22;34309;47.260;2.796;2022-09-09T03:22:38;23.00;33.50
48515;DHT22;34309;47.260;2.796;2022-09-09T03:25:04;23.00;33.60
48515;DHT22;34309;47.260;2.796;2022-09-09T03:27:31;23.00;33.60
48515;DHT22;34309;47.260;2.796;2022-09-09T03:29:56;23.00;33.30
48515;DHT22;34309;47.260;2.796;2022-09-09T03:32:23;23.00;33.30
48515;DHT22;34309;47.260;2.796;2022-09-09T03:34:51;23.00;33.40
48515;DHT22;34309;47.260;2.796;2022-09-09T03:37:18;23.00;33.40
48515;DHT22;34309;47.260;2.796;2022-09-09T03:39:44;23.00;33.40
48515;DHT22;34309;47.260;2.796;2022-09-09T03:42:12;23.00;34.30
48515;DHT22;34309;47.260;2.796;2022-09-09T03:44:40;23.00;33.20
48515;DHT22;34309;47.260;2.796;2022-09-09T03:47:07;23.00;33.50
48515;DHT22;34309;47.260;2.796;2022-09-09T03:49:33;23.00;33.40
48515;DHT22;34309;47.260;2.796;2022-09-09T03:51:58;23.00;33.40
48515;DHT22;34309;47.260;2.796;2022-09-09T03:54:25;23.00;33.60
48515;DHT22;34309;47.260;2.796;2022-09-09T03:56:51;23.00;33.50
48515;DHT22;34309;47.260;2.796;2022-09-09T03:59:17;23.00;33.60
48515;DHT22;34309;47.260;2.796;2022-09-09T04:01:42;23.00;33.40
48515;DHT22;34309;47.260;2.796;2022-09-09T04:04:08;23.00;33.60
48515;DHT22;34309;47.260;2.796;2022-09-09T04:06:35;23.00;33.50
48515;DHT22;34309;47.260;2.796;2022-09-09T04:09:00;22.90;33.50
48515;DHT22;34309;47.260;2.796;2022-09-09T04:11:29;22.90;33.30
48515;DHT22;34309;47.260;2.796;2022-09-09T04:13:54;22.90;33.50
48515;DHT22;34309;47.260;2.796;2022-09-09T04:16:20;23.00;33.60
48515;DHT22;34309;47.260;2.796;2022-09-09T04:18:46;22.90;33.50
48515;DHT22;34309;47.260;2.796;2022-09-09T04:21:12;22.90;33.40
48515;DHT22;34309;47.260;2.796;2022-09-09T04:23:38;22.90;33.50
48515;DHT22;34309;47.260;2.796;2022-09-09T04:26:05;22.90;33.30
48515;DHT22;34309;47.260;2.796;2022-09-09T04:28:34;22.90;33.50
48515;DHT22;34309;47.260;2.796;2022-09-09T04:31:08;22.90;33.50
48515;DHT22;34309;47.260;2.796;2022-09-09T04:33:35;22.90;33.40
48515;DHT22;34309;47.260;2.796;2022-09-09T04:36:01;22.90;33.60
48515;DHT22;34309;47.260;2.796;2022-09-09T04:38:26;22.90;33.40
48515;DHT22;34309;47.260;2.796;2022-09-09T04:40:52;22.90;33.50
48515;DHT22;34309;47.260;2.796;2022-09-09T04:43:20;22.90;33.50
48515;DHT22;34309;47.260;2.796;2022-09-09T04:45:50;22.90;33.50
48515;DHT22;34309;47.260;2.796;2022-09-09T04:48:20;22.90;33.50
48515;DHT22;34309;47.260;2.796;2022-09-09T04:51:03;22.90;33.60
48515;DHT22;34309;47.260;2.796;2022-09-09T04:53:30;22.90;33.50
48515;DHT22;34309;47.260;2.796;2022-09-09T04:58:28;22.90;33.50
48515;DHT22;34309;47.260;2.796;2022-09-09T05:00:54;22.90;33.60
48515;DHT22;34309;47.260;2.796;2022-09-09T05:03:19;22.90;33.50
48515;DHT22;34309;47.260;2.796;2022-09-09T05:05:45;22.90;33.60
48515;DHT22;34309;47.260;2.796;2022-09-09T05:08:11;22.90;33.50
48515;DHT22;34309;47.260;2.796;2022-09-09T05:10:38;22.90;34.10
48515;DHT22;34309;47.260;2.796;2022-09-09T05:13:04;22.90;34.10
48515;DHT22;34309;47.260;2.796;2022-09-09T05:15:30;22.90;34.20
48515;DHT22;34309;47.260;2.796;2022-09-09T05:17:58;22.90;34.20
48515;DHT22;34309;47.260;2.796;2022-09-09T05:20:24;22.80;34.20
48515;DHT22;34309;47.260;2.796;2022-09-09T05:22:53;22.90;34.10
48515;DHT22;34309;47.260;2.796;2022-09-09T05:25:19;22.90;34.00
48515;DHT22;34309;47.260;2.796;2022-09-09T05:27:45;22.90;33.90
48515;DHT22;34309;47.260;2.796;2022-09-09T05:30:11;22.80;33.90
48515;DHT22;34309;47.260;2.796;2022-09-09T05:32:37;22.80;34.00
48515;DHT22;34309;47.260;2.796;2022-09-09T05:35:03;22.80;34.10
48515;DHT22;34309;47.260;2.796;2022-09-09T05:37:30;22.80;34.10
48515;DHT22;34309;47.260;2.796;2022-09-09T05:39:56;22.90;34.20
48515;DHT22;34309;47.260;2.796;2022-09-09T05:42:23;22.80;33.90
48515;DHT22;34309;47.260;2.796;2022-09-09T05:44:49;22.80;33.70
48515;DHT22;34309;47.260;2.796;2022-09-09T05:47:16;22.80;33.60
48515;DHT22;34309;47.260;2.796;2022-09-09T05:49:42;22.80;33.60
48515;DHT22;34309;47.260;2.796;2022-09-09T05:52:08;22.80;33.50
48515;DHT22;34309;47.260;2.796;2022-09-09T05:54:35;22.80;33.50
48515;DHT22;34309;47.260;2.796;2022-09-09T05:57:03;22.80;33.70
48515;DHT22;34309;47.260;2.796;2022-09-09T05:59:29;22.80;33.70
48515;DHT22;34309;47.260;2.796;2022-09-09T06:01:54;22.80;33.70
48515;DHT22;34309;47.260;2.796;2022-09-09T06:04:20;22.80;33.60
48515;DHT22;34309;47.260;2.796;2022-09-09T06:06:49;22.80;33.70
48515;DHT22;34309;47.260;2.796;2022-09-09T06:09:15;22.80;33.70
48515;DHT22;34309;47.260;2.796;2022-09-09T06:11:43;22.80;33.70
48515;DHT22;34309;47.260;2.796;2022-09-09T06:14:08;22.80;33.90
48515;DHT22;34309;47.260;2.796;2022-09-09T06:16:34;22.80;33.70
48515;DHT22;34309;47.260;2.796;2022-09-09T06:19:01;22.80;33.80
48515;DHT22;34309;47.260;2.796;2022-09-09T06:21:30;22.70;34.30
48515;DHT22;34309;47.260;2.796;2022-09-09T06:23:56;22.80;33.70
48515;DHT22;34309;47.260;2.796;2022-09-09T06:26:25;22.80;33.90
48515;DHT22;34309;47.260;2.796;2022-09-09T06:28:52;22.80;33.60
48515;DHT22;34309;47.260;2.796;2022-09-09T06:31:20;22.70;33.40
48515;DHT22;34309;47.260;2.796;2022-09-09T06:33:51;22.80;33.60
48515;DHT22;34309;47.260;2.796;2022-09-09T06:36:28;22.80;33.60
48515;DHT22;34309;47.260;2.796;2022-09-09T06:38:55;22.70;33.70
48515;DHT22;34309;47.260;2.796;2022-09-09T06:41:23;22.80;33.80
48515;DHT22;34309;47.260;2.796;2022-09-09T06:43:49;22.70;33.60
48515;DHT22;34309;47.260;2.796;2022-09-09T06:46:20;22.70;33.60
48515;DHT22;34309;47.260;2.796;2022-09-09T06:48:47;22.80;33.80
48515;DHT22;34309;47.260;2.796;2022-09-09T06:51:18;22.70;33.70
48515;DHT22;34309;47.260;2.796;2022-09-09T06:53:45;22.70;33.60
48515;DHT22;34309;47.260;2.796;2022-09-09T06:56:19;22.80;33.60
48515;DHT22;34309;47.260;2.796;2022-09-09T06:58:46;22.70;33.60
48515;DHT22;34309;47.260;2.796;2022-09-09T07:01:17;22.80;33.70
48515;DHT22;34309;47.260;2.796;2022-09-09T07:03:47;22.80;33.80
48515;DHT22;34309;47.260;2.796;2022-09-09T07:06:21;22.70;33.70
48515;DHT22;34309;47.260;2.796;2022-09-09T07:08:55;22.80;33.60
48515;DHT22;34309;47.260;2.796;2022-09-09T07:11:22;22.80;34.10
48515;DHT22;34309;47.260;2.796;2022-09-09T07:13:49;22.70;33.60
48515;DHT22;34309;47.260;2.796;2022-09-09T07:16:17;22.70;33.90
48515;DHT22;34309;47.260;2.796;2022-09-09T07:18:44;22.80;34.00
48515;DHT22;34309;47.260;2.796;2022-09-09T07:21:11;22.80;33.90
48515;DHT22;34309;47.260;2.796;2022-09-09T07:23:40;22.80;33.70
48515;DHT22;34309;47.260;2.796;2022-09-09T07:26:11;22.80;33.70
48515;DHT22;34309;47.260;2.796;2022-09-09T07:28:39;22.70;33.80
48515;DHT22;34309;47.260;2.796;2022-09-09T07:31:06;22.70;33.60
48515;DHT22;34309;47.260;2.796;2022-09-09T07:33:34;22.70;33.60
48515;DHT22;34309;47.260;2.796;2022-09-09T07:36:08;22.70;33.60
48515;DHT22;34309;47.260;2.796;2022-09-09T07:38:39;22.70;33.40
48515;DHT22;34309;47.260;2.796;2022-09-09T07:41:10;22.70;33.80
48515;DHT22;34309;47.260;2.796;2022-09-09T07:43:43;22.70;33.50
48515;DHT22;34309;47.260;2.796;2022-09-09T07:46:10;22.70;33.60
48515;DHT22;34309;47.260;2.796;2022-09-09T07:48:38;22.70;33.50
48515;DHT22;34309;47.260;2.796;2022-09-09T07:51:12;22.70;33.80
48515;DHT22;34309;47.260;2.796;2022-09-09T07:53:40;22.70;33.90
48515;DHT22;34309;47.260;2.796;2022-09-09T07:56:08;22.70;33.60
48515;DHT22;34309;47.260;2.796;2022-09-09T07:58:35;22.70;33.70
48515;DHT22;34309;47.260;2.796;2022-09-09T08:01:07;22.70;33.70
48515;DHT22;34309;47.260;2.796;2022-09-09T08:03:33;22.70;33.80
48515;DHT22;34309;47.260;2.796;2022-09-09T08:06:04;22.70;33.80
48515;DHT22;34309;47.260;2.796;2022-09-09T08:08:30;22.70;33.60
48515;DHT22;34309;47.260;2.796;2022-09-09T08:11:13;22.70;33.80
48515;DHT22;34309;47.260;2.796;2022-09-09T08:13:40;22.70;33.60
48515;DHT22;34309;47.260;2.796;2022-09-09T08:16:09;22.70;34.00
48515;DHT22;34309;47.260;2.796;2022-09-09T08:18:35;22.70;33.80
48515;DHT22;34309;47.260;2.796;2022-09-09T08:21:16;22.70;34.00
48515;DHT22;34309;47.260;2.796;2022-09-09T08:23:44;22.70;34.00
48515;DHT22;34309;47.260;2.796;2022-09-09T08:26:40;22.70;34.00
48515;DHT22;34309;47.260;2.796;2022-09-09T08:29:10;22.70;33.90
48515;DHT22;34309;47.260;2.796;2022-09-09T08:31:49;22.70;33.90
48515;DHT22;34309;47.260;2.796;2022-09-09T08:34:15;22.70;33.90
48515;DHT22;34309;47.260;2.796;2022-09-09T08:36:43;22.70;33.80
48515;DHT22;34309;47.260;2.796;2022-09-09T08:39:11;22.70;34.10
48515;DHT22;34309;47.260;2.796;2022-09-09T08:47:20;22.70;34.10
48515;DHT22;34309;47.260;2.796;2022-09-09T08:57:39;22.70;33.90
48515;DHT22;34309;47.260;2.796;2022-09-09T09:00:07;22.70;34.60
48515;DHT22;34309;47.260;2.796;2022-09-09T09:05:40;22.70;34.60
48515;DHT22;34309;47.260;2.796;2022-09-09T09:08:22;22.70;33.90
48515;DHT22;34309;47.260;2.796;2022-09-09T09:10:54;22.70;34.00
48515;DHT22;34309;47.260;2.796;2022-09-09T09:16:02;22.70;34.10
48515;DHT22;34309;47.260;2.796;2022-09-09T09:18:31;22.70;34.10
48515;DHT22;34309;47.260;2.796;2022-09-09T09:21:16;22.70;34.20
48515;DHT22;34309;47.260;2.796;2022-09-09T09:23:57;22.70;34.10
48515;DHT22;34309;47.260;2.796;2022-09-09T09:26:29;22.70;34.10
48515;DHT22;34309;47.260;2.796;2022-09-09T09:28:56;22.70;34.00
48515;DHT22;34309;47.260;2.796;2022-09-09T09:31:23;22.70;34.10
48515;DHT22;34309;47.260;2.796;2022-09-09T09:33:54;22.70;34.10
48515;DHT22;34309;47.260;2.796;2022-09-09T09:36:23;22.70;34.10
48515;DHT22;34309;47.260;2.796;2022-09-09T09:38:57;22.70;34.00
48515;DHT22;34309;47.260;2.796;2022-09-09T09:41:30;22.70;34.10
48515;DHT22;34309;47.260;2.796;2022-09-09T09:43:56;22.70;34.20
48515;DHT22;34309;47.260;2.796;2022-09-09T09:46:24;22.70;34.10
48515;DHT22;34309;47.260;2.796;2022-09-09T09:49:01;22.70;34.30
48515;DHT22;34309;47.260;2.796;2022-09-09T09:51:29;22.70;34.20
48515;DHT22;34309;47.260;2.796;2022-09-09T09:54:23;22.70;34.20
48515;DHT22;34309;47.260;2.796;2022-09-09T09:56:53;22.70;34.20
48515;DHT22;34309;47.260;2.796;2022-09-09T10:01:48;22.70;34.20
48515;DHT22;34309;47.260;2.796;2022-09-09T10:04:22;22.70;34.10
48515;DHT22;34309;47.260;2.796;2022-09-09T10:06:50;22.70;33.80
48515;DHT22;34309;47.260;2.796;2022-09-09T10:09:26;22.70;34.10
48515;DHT22;34309;47.260;2.796;2022-09-09T10:17:19;22.70;34.00
48515;DHT22;34309;47.260;2.796;2022-09-09T10:20:15;22.70;34.10
48515;DHT22;34309;47.260;2.796;2022-09-09T10:22:50;22.70;34.20
48515;DHT22;34309;47.260;2.796;2022-09-09T10:28:10;22.70;34.20
48515;DHT22;34309;47.260;2.796;2022-09-09T10:31:08;22.70;34.20
48515;DHT22;34309;47.260;2.796;2022-09-09T10:36:21;22.70;34.00
48515;DHT22;34309;47.260;2.796;2022-09-09T10:38:52;22.70;33.90
48515;DHT22;34309;47.260;2.796;2022-09-09T10:42:01;22.70;34.00
48515;DHT22;34309;47.260;2.796;2022-09-09T10:52:27;22.70;34.10
48515;DHT22;34309;47.260;2.796;2022-09-09T10:55:26;22.70;33.90
48515;DHT22;34309;47.260;2.796;2022-09-09T10:57:54;22.70;33.80
48515;DHT22;34309;47.260;2.796;2022-09-09T11:03:03;22.70;34.50
48515;DHT22;34309;47.260;2.796;2022-09-09T11:05:51;22.70;33.90
48515;DHT22;34309;47.260;2.796;2022-09-09T11:08:21;22.70;34.20
48515;DHT22;34309;47.260;2.796;2022-09-09T11:16:42;22.70;34.00
48515;DHT22;34309;47.260;2.796;2022-09-09T11:19:33;22.70;34.00
48515;DHT22;34309;47.260;2.796;2022-09-09T11:22:08;22.70;34.00
48515;DHT22;34309;47.260;2.796;2022-09-09T11:24:44;22.70;34.20
48515;DHT22;34309;47.260;2.796;2022-09-09T11:27:40;22.70;34.00
48515;DHT22;34309;47.260;2.796;2022-09-09T11:30:50;22.70;34.00
48515;DHT22;34309;47.260;2.796;2022-09-09T11:34:03;22.70;34.20
48515;DHT22;34309;47.260;2.796;2022-09-09T11:41:51;22.70;34.00
48515;DHT22;34309;47.260;2.796;2022-09-09T11:44:28;22.70;34.20
48515;DHT22;34309;47.260;2.796;2022-09-09T11:46:55;22.70;34.00
48515;DHT22;34309;47.260;2.796;2022-09-09T11:49:39;22.70;34.10
48515;DHT22;34309;47.260;2.796;2022-09-09T11:52:40;22.70;34.30
48515;DHT22;34309;47.260;2.796;2022-09-09T11:55:28;22.70;34.00
48515;DHT22;34309;47.260;2.796;2022-09-09T11:58:00;22.70;34.10
48515;DHT22;34309;47.260;2.796;2022-09-09T12:00:41;22.70;34.20
48515;DHT22;34309;47.260;2.796;2022-09-09T12:08:45;22.70;34.10
48515;DHT22;34309;47.260;2.796;2022-09-09T12:11:11;22.70;34.20
48515;DHT22;34309;47.260;2.796;2022-09-09T12:13:38;22.70;34.20
48515;DHT22;34309;47.260;2.796;2022-09-09T12:16:04;22.70;34.30
48515;DHT22;34309;47.260;2.796;2022-09-09T12:18:36;22.70;34.20
48515;DHT22;34309;47.260;2.796;2022-09-09T12:21:08;22.70;34.50
48515;DHT22;34309;47.260;2.796;2022-09-09T12:23:50;22.70;34.30
48515;DHT22;34309;47.260;2.796;2022-09-09T12:31:58;22.70;34.60
48515;DHT22;34309;47.260;2.796;2022-09-09T12:34:41;22.70;34.80
48515;DHT22;34309;47.260;2.796;2022-09-09T12:37:35;22.70;34.40
48515;DHT22;34309;47.260;2.796;2022-09-09T12:40:04;22.70;34.60
48515;DHT22;34309;47.260;2.796;2022-09-09T12:42:31;22.70;34.50
48515;DHT22;34309;47.260;2.796;2022-09-09T12:45:01;22.70;34.50
48515;DHT22;34309;47.260;2.796;2022-09-09T12:50:21;22.70;34.40
48515;DHT22;34309;47.260;2.796;2022-09-09T12:52:49;22.70;34.30
48515;DHT22;34309;47.260;2.796;2022-09-09T12:55:19;22.70;34.30
48515;DHT22;34309;47.260;2.796;2022-09-09T12:57:48;22.70;34.30
48515;DHT22;34309;47.260;2.796;2022-09-09T13:00:20;22.70;34.40
48515;DHT22;34309;47.260;2.796;2022-09-09T13:03:02;22.70;35.20
48515;DHT22;34309;47.260;2.796;2022-09-09T13:05:36;22.70;34.30
48515;DHT22;34309;47.260;2.796;2022-09-09T13:08:08;22.70;34.30
48515;DHT22;34309;47.260;2.796;2022-09-09T13:10:51;22.70;34.90
48515;DHT22;34309;47.260;2.796;2022-09-09T13:13:27;22.70;34.20
48515;DHT22;34309;47.260;2.796;2022-09-09T13:15:59;22.70;34.30
48515;DHT22;34309;47.260;2.796;2022-09-09T13:18:31;22.70;34.30
48515;DHT22;34309;47.260;2.796;2022-09-09T13:20:59;22.70;34.20
48515;DHT22;34309;47.260;2.796;2022-09-09T13:23:30;22.70;34.20
48515;DHT22;34309;47.260;2.796;2022-09-09T13:26:05;22.70;34.20
48515;DHT22;34309;47.260;2.796;2022-09-09T13:28:33;22.70;34.10
48515;DHT22;34309;47.260;2.796;2022-09-09T13:31:05;22.70;34.20
48515;DHT22;34309;47.260;2.796;2022-09-09T13:33:33;22.70;34.20
48515;DHT22;34309;47.260;2.796;2022-09-09T13:36:00;22.70;34.00
48515;DHT22;34309;47.260;2.796;2022-09-09T13:38:29;22.70;34.10
48515;DHT22;34309;47.260;2.796;2022-09-09T13:40:58;22.70;34.00
48515;DHT22;34309;47.260;2.796;2022-09-09T13:43:27;22.70;34.10
48515;DHT22;34309;47.260;2.796;2022-09-09T13:45:59;22.70;34.20
48515;DHT22;34309;47.260;2.796;2022-09-09T13:48:25;22.70;34.10
48515;DHT22;34309;47.260;2.796;2022-09-09T13:50:58;22.70;34.00
48515;DHT22;34309;47.260;2.796;2022-09-09T13:53:24;22.70;34.10
48515;DHT22;34309;47.260;2.796;2022-09-09T13:55:50;22.70;34.10
48515;DHT22;34309;47.260;2.796;2022-09-09T13:58:17;22.70;34.30
48515;DHT22;34309;47.260;2.796;2022-09-09T14:00:45;22.70;34.30
48515;DHT22;34309;47.260;2.796;2022-09-09T14:03:11;22.70;34.30
48515;DHT22;34309;47.260;2.796;2022-09-09T14:05:37;22.70;34.20
48515;DHT22;34309;47.260;2.796;2022-09-09T14:08:07;22.70;34.30
48515;DHT22;34309;47.260;2.796;2022-09-09T14:10:36;22.70;34.40
48515;DHT22;34309;47.260;2.796;2022-09-09T14:13:02;22.70;34.30
48515;DHT22;34309;47.260;2.796;2022-09-09T14:15:28;22.80;34.30
48515;DHT22;34309;47.260;2.796;2022-09-09T14:17:54;22.70;34.30
48515;DHT22;34309;47.260;2.796;2022-09-09T14:20:20;22.70;34.00
48515;DHT22;34309;47.260;2.796;2022-09-09T14:22:46;22.70;34.10
48515;DHT22;34309;47.260;2.796;2022-09-09T14:25:12;22.70;34.30
48515;DHT22;34309;47.260;2.796;2022-09-09T14:27:41;22.70;34.00
48515;DHT22;34309;47.260;2.796;2022-09-09T14:30:08;22.70;34.10
48515;DHT22;34309;47.260;2.796;2022-09-09T14:32:34;22.70;34.10
48515;DHT22;34309;47.260;2.796;2022-09-09T14:35:00;22.70;34.30
48515;DHT22;34309;47.260;2.796;2022-09-09T14:37:27;22.70;34.10
48515;DHT22;34309;47.260;2.796;2022-09-09T14:39:52;22.70;34.20
48515;DHT22;34309;47.260;2.796;2022-09-09T14:42:19;22.80;34.60
48515;DHT22;34309;47.260;2.796;2022-09-09T14:44:45;22.70;34.40
48515;DHT22;34309;47.260;2.796;2022-09-09T14:47:10;22.70;34.30
48515;DHT22;34309;47.260;2.796;2022-09-09T14:49:37;22.70;34.40
48515;DHT22;34309;47.260;2.796;2022-09-09T14:52:04;22.70;34.60
48515;DHT22;34309;47.260;2.796;2022-09-09T14:54:31;22.70;34.30
48515;DHT22;34309;47.260;2.796;2022-09-09T14:56:57;22.70;34.70
48515;DHT22;34309;47.260;2.796;2022-09-09T14:59:23;22.70;34.70
48515;DHT22;34309;47.260;2.796;2022-09-09T15:01:49;22.70;34.30
48515;DHT22;34309;47.260;2.796;2022-09-09T15:04:15;22.70;34.40
48515;DHT22;34309;47.260;2.796;2022-09-09T15:06:42;22.70;34.40
48515;DHT22;34309;47.260;2.796;2022-09-09T15:09:12;22.70;34.10
48515;DHT22;34309;47.260;2.796;2022-09-09T15:11:38;22.70;34.30
48515;DHT22;34309;47.260;2.796;2022-09-09T15:14:05;22.70;34.20
48515;DHT22;34309;47.260;2.796;2022-09-09T15:16:31;22.70;34.20
48515;DHT22;34309;47.260;2.796;2022-09-09T15:18:59;22.70;34.20
48515;DHT22;34309;47.260;2.796;2022-09-09T15:21:27;22.70;34.00
48515;DHT22;34309;47.260;2.796;2022-09-09T15:23:53;22.70;34.90
48515;DHT22;34309;47.260;2.796;2022-09-09T15:26:19;22.70;34.10
48515;DHT22;34309;47.260;2.796;2022-09-09T15:28:46;22.80;34.60
48515;DHT22;34309;47.260;2.796;2022-09-09T15:31:21;22.70;34.40
48515;DHT22;34309;47.260;2.796;2022-09-09T15:33:48;22.70;34.40
48515;DHT22;34309;47.260;2.796;2022-09-09T15:36:18;22.70;34.50
48515;DHT22;34309;47.260;2.796;2022-09-09T15:38:44;22.70;34.30
48515;DHT22;34309;47.260;2.796;2022-09-09T15:41:11;22.80;34.50
48515;DHT22;34309;47.260;2.796;2022-09-09T15:43:37;22.70;34.50
48515;DHT22;34309;47.260;2.796;2022-09-09T15:46:25;22.70;34.30
48515;DHT22;34309;47.260;2.796;2022-09-09T15:48:56;22.80;34.70
48515;DHT22;34309;47.260;2.796;2022-09-09T15:51:22;22.70;34.50
48515;DHT22;34309;47.260;2.796;2022-09-09T15:53:53;22.70;34.40
48515;DHT22;34309;47.260;2.796;2022-09-09T15:56:19;22.70;34.50
48515;DHT22;34309;47.260;2.796;2022-09-09T15:58:45;22.70;34.40
48515;DHT22;34309;47.260;2.796;2022-09-09T16:01:11;22.70;34.40
48515;DHT22;34309;47.260;2.796;2022-09-09T16:03:40;22.70;34.60
48515;DHT22;34309;47.260;2.796;2022-09-09T16:06:14;22.70;34.70
48515;DHT22;34309;47.260;2.796;2022-09-09T16:08:44;22.70;34.50
48515;DHT22;34309;47.260;2.796;2022-09-09T16:11:14;22.70;34.60
48515;DHT22;34309;47.260;2.796;2022-09-09T16:13:41;22.70;34.60
48515;DHT22;34309;47.260;2.796;2022-09-09T16:16:12;22.70;34.40
48515;DHT22;34309;47.260;2.796;2022-09-09T16:18:43;22.70;34.40
48515;DHT22;34309;47.260;2.796;2022-09-09T16:21:17;22.70;34.40
48515;DHT22;34309;47.260;2.796;2022-09-09T16:23:44;22.70;34.60
48515;DHT22;34309;47.260;2.796;2022-09-09T16:26:15;22.70;34.50
48515;DHT22;34309;47.260;2.796;2022-09-09T16:28:41;22.70;34.50
48515;DHT22;34309;47.260;2.796;2022-09-09T16:31:08;22.70;34.60
48515;DHT22;34309;47.260;2.796;2022-09-09T16:33:36;22.70;34.60
48515;DHT22;34309;47.260;2.796;2022-09-09T16:36:06;22.70;34.60
48515;DHT22;34309;47.260;2.796;2022-09-09T16:38:32;22.70;34.50
48515;DHT22;34309;47.260;2.796;2022-09-09T16:40:59;22.80;34.50
48515;DHT22;34309;47.260;2.796;2022-09-09T16:43:25;22.80;34.50
48515;DHT22;34309;47.260;2.796;2022-09-09T16:45:51;22.70;34.50
48515;DHT22;34309;47.260;2.796;2022-09-09T16:48:17;22.70;34.40
48515;DHT22;34309;47.260;2.796;2022-09-09T16:50:42;22.70;34.40
48515;DHT22;34309;47.260;2.796;2022-09-09T16:53:08;22.70;34.40
48515;DHT22;34309;47.260;2.796;2022-09-09T16:55:40;22.70;34.30
48515;DHT22;34309;47.260;2.796;2022-09-09T16:58:12;22.70;34.40
48515;DHT22;34309;47.260;2.796;2022-09-09T17:00:38;22.70;34.30
48515;DHT22;34309;47.260;2.796;2022-09-09T17:03:04;22.70;34.20
48515;DHT22;34309;47.260;2.796;2022-09-09T17:05:30;22.70;34.30
48515;DHT22;34309;47.260;2.796;2022-09-09T17:07:58;22.70;34.30
48515;DHT22;34309;47.260;2.796;2022-09-09T17:10:24;22.70;34.30
48515;DHT22;34309;47.260;2.796;2022-09-09T17:12:50;22.70;34.30
48515;DHT22;34309;47.260;2.796;2022-09-09T17:15:16;22.70;34.30
48515;DHT22;34309;47.260;2.796;2022-09-09T17:17:43;22.70;34.30
48515;DHT22;34309;47.260;2.796;2022-09-09T17:20:10;22.70;34.40
48515;DHT22;34309;47.260;2.796;2022-09-09T17:22:36;22.70;34.40
48515;DHT22;34309;47.260;2.796;2022-09-09T17:25:03;22.70;34.30
48515;DHT22;34309;47.260;2.796;2022-09-09T17:27:29;22.70;34.30
48515;DHT22;34309;47.260;2.796;2022-09-09T17:29:57;22.70;34.30
48515;DHT22;34309;47.260;2.796;2022-09-09T17:32:22;22.70;34.30
48515;DHT22;34309;47.260;2.796;2022-09-09T17:34:48;22.70;34.40
48515;DHT22;34309;47.260;2.796;2022-09-09T17:37:14;22.70;34.40
48515;DHT22;34309;47.260;2.796;2022-09-09T17:39:39;22.70;34.30
48515;DHT22;34309;47.260;2.796;2022-09-09T17:42:05;22.70;34.30